Time;durP1;ratioP1;P1;durP2;ratioP2;P2;SDS_P1;SDS_P2;PMS_P1;PMS_P2;Temp;Humidity;BMP_temperature;BMP_pressure;BME280_temperature;BME280_humidity;BME280_pressure;Samples;Min_cycle;Max_cycle;Signal;HPM_P1;HPM_P2
2021/12/29 00:01:30;;;;;;;12.55;2.80;;;6.80;99.90;;;;;;6288441;22;20027;-86
2021/12/29 00:04:18;;;;;;;10.63;2.20;;;6.80;99.90;;;;;;6310256;22;20028;-86
2021/12/29 00:07:06;;;;;;;17.23;2.85;;;6.70;99.90;;;;;;6316434;22;20084;-85
2021/12/29 00:10:00;;;;;;;10.68;2.33;;;6.80;99.90;;;;;;6290498;22;20026;-86
2021/12/29 00:12:52;;;;;;;16.60;2.47;;;6.70;99.90;;;;;;6291162;22;20049;-87
2021/12/29 00:15:39;;;;;;;9.48;2.08;;;6.70;99.90;;;;;;6288135;22;20027;-86
2021/12/29 00:18:35;;;;;;;10.38;2.10;;;6.70;99.90;;;;;;6307776;22;20129;-84
2021/12/29 00:21:23;;;;;;;9.77;2.63;;;6.70;99.90;;;;;;6310141;22;20026;-88
2021/12/29 00:24:10;;;;;;;11.40;2.58;;;6.70;99.90;;;;;;6315532;22;20034;-86
2021/12/29 00:26:57;;;;;;;9.07;2.17;;;6.70;99.90;;;;;;6312504;22;20026;-84
2021/12/29 00:29:44;;;;;;;14.75;2.72;;;6.60;99.90;;;;;;6291766;22;20065;-87
2021/12/29 00:32:31;;;;;;;13.55;3.20;;;6.60;99.90;;;;;;6317335;22;20033;-85
2021/12/29 00:35:21;;;;;;;14.95;2.40;;;6.60;99.90;;;;;;6293324;22;20153;-85
2021/12/29 00:38:12;;;;;;;13.85;2.10;;;6.60;99.90;;;;;;6290289;22;20048;-85
2021/12/29 00:41:01;;;;;;;12.10;2.40;;;6.60;99.90;;;;;;6284958;22;20291;-84
2021/12/29 00:43:49;;;;;;;13.75;2.08;;;6.60;99.90;;;;;;6306429;22;20038;-87
2021/12/29 00:46:39;;;;;;;8.93;2.47;;;6.60;99.90;;;;;;6286359;22;20035;-86
2021/12/29 00:49:35;;;;;;;8.80;1.67;;;6.60;99.90;;;;;;6286047;22;20035;-85
2021/12/29 00:52:24;;;;;;;9.10;1.98;;;6.60;99.90;;;;;;6305072;22;20394;-88
2021/12/29 00:55:17;;;;;;;8.93;2.25;;;6.60;99.90;;;;;;6284714;22;20042;-85
2021/12/29 00:58:07;;;;;;;8.68;2.08;;;6.60;99.90;;;;;;6261827;22;20027;-85
2021/12/29 01:00:54;;;;;;;6.03;1.33;;;6.60;99.90;;;;;;6283896;22;20035;-87
2021/12/29 01:03:46;;;;;;;8.73;1.90;;;6.60;99.90;;;;;;6284032;22;20038;-86
2021/12/29 01:06:33;;;;;;;9.57;1.60;;;6.60;99.90;;;;;;6283643;22;20094;-85
2021/12/29 01:09:21;;;;;;;5.40;1.63;;;6.60;99.90;;;;;;6264169;22;20342;-85
2021/12/29 01:12:15;;;;;;;10.60;2.35;;;6.60;99.90;;;;;;6305853;22;20152;-85
2021/12/29 01:15:07;;;;;;;9.60;1.90;;;6.60;99.90;;;;;;6284174;22;20030;-85
2021/12/29 01:17:56;;;;;;;8.02;1.23;;;6.70;99.90;;;;;;6281748;22;20023;-85
2021/12/29 01:20:43;;;;;;;6.50;1.70;;;6.70;99.90;;;;;;6284759;22;20035;-85
2021/12/29 01:23:33;;;;;;;5.97;1.15;;;6.70;99.90;;;;;;6306153;22;20371;-86
2021/12/29 01:26:20;;;;;;;5.78;1.20;;;6.70;99.90;;;;;;6263387;22;20024;-85
2021/12/29 01:29:12;;;;;;;5.20;1.10;;;6.70;99.90;;;;;;6307704;22;20304;-84
2021/12/29 01:32:00;;;;;;;6.80;1.20;;;6.70;99.90;;;;;;6306880;22;20299;-87
2021/12/29 01:34:48;;;;;;;3.15;1.08;;;6.80;99.90;;;;;;6305224;22;20496;-87
2021/12/29 01:37:36;;;;;;;4.78;0.90;;;6.70;99.90;;;;;;6286440;22;20046;-86
2021/12/29 01:40:25;;;;;;;5.85;1.20;;;6.80;99.90;;;;;;6304355;22;20089;-86
2021/12/29 01:43:16;;;;;;;4.20;1.10;;;6.80;99.90;;;;;;6305263;22;20361;-86
2021/12/29 01:46:11;;;;;;;2.83;1.05;;;6.90;99.90;;;;;;6308385;22;20019;-84
2021/12/29 01:48:58;;;;;;;;;;;6.90;99.90;;;;;;6282518;22;20034;-87
2021/12/29 01:52:03;;;;;;;5.68;1.33;;;6.90;99.90;;;;;;6284770;22;19914;-85
2021/12/29 01:54:50;;;;;;;3.80;1.10;;;6.90;99.90;;;;;;6306091;22;20047;-85
2021/12/29 01:57:40;;;;;;;10.38;1.58;;;6.90;99.90;;;;;;6284658;22;20425;-86
2021/12/29 02:00:31;;;;;;;4.45;1.30;;;6.90;99.90;;;;;;6284025;22;20023;-86
2021/12/29 02:03:18;;;;;;;6.63;1.15;;;6.90;99.90;;;;;;6285387;22;20023;-84
2021/12/29 02:06:05;;;;;;;3.08;1.05;;;6.80;99.90;;;;;;6284822;22;20437;-86
2021/12/29 02:08:55;;;;;;;7.25;1.63;;;6.80;99.90;;;;;;6296974;22;20148;-86
2021/12/29 02:11:44;;;;;;;4.45;1.35;;;6.80;99.90;;;;;;6285524;22;20027;-83
2021/12/29 02:14:33;;;;;;;2.95;1.10;;;6.80;99.90;;;;;;6286820;22;20034;-84
2021/12/29 02:17:21;;;;;;;6.32;1.50;;;6.80;99.90;;;;;;6286220;22;20027;-85
2021/12/29 02:20:12;;;;;;;4.63;1.65;;;6.70;99.90;;;;;;6244449;22;20092;-85
2021/12/29 02:23:12;;;;;;;5.85;2.05;;;6.70;99.90;;;;;;6285000;22;20033;-86
2021/12/29 02:26:00;;;;;;;8.30;1.90;;;6.70;99.90;;;;;;6250576;22;20049;-86
2021/12/29 02:28:50;;;;;;;8.63;1.88;;;6.60;99.90;;;;;;6287312;22;20023;-85
2021/12/29 02:31:39;;;;;;;8.77;1.50;;;6.60;99.90;;;;;;6244489;22;20073;-86
2021/12/29 02:34:27;;;;;;;6.60;1.55;;;6.60;99.90;;;;;;6285806;22;20378;-88
2021/12/29 02:37:19;;;;;;;5.57;1.75;;;6.60;99.90;;;;;;6308880;22;20034;-87
2021/12/29 02:40:09;;;;;;;5.07;1.25;;;6.50;99.90;;;;;;6246274;22;20038;-87
2021/12/29 02:42:57;;;;;;;7.13;1.45;;;6.40;99.90;;;;;;6284061;22;20023;-86
2021/12/29 02:45:49;;;;;;;7.85;1.88;;;6.40;99.90;;;;;;6285655;22;20034;-87
2021/12/29 02:48:45;;;;;;;5.88;1.20;;;6.40;99.90;;;;;;6308979;22;20090;-86
2021/12/29 02:51:35;;;;;;;5.75;1.13;;;6.40;99.90;;;;;;6284833;22;20034;-87
2021/12/29 02:54:23;;;;;;;2.60;0.90;;;6.40;99.90;;;;;;6308291;22;20050;-87
2021/12/29 02:57:13;;;;;;;9.55;1.83;;;6.40;99.90;;;;;;6305059;22;20023;-87
2021/12/29 03:00:00;;;;;;;2.65;1.23;;;6.40;99.90;;;;;;6308450;22;20257;-89
2021/12/29 03:02:49;;;;;;;8.00;1.67;;;6.40;99.90;;;;;;6285961;22;20023;-86
2021/12/29 03:05:48;;;;;;;6.35;1.83;;;6.40;99.90;;;;;;6269758;22;20034;-85
2021/12/29 03:08:35;;;;;;;5.13;1.23;;;6.40;99.90;;;;;;6282987;22;20034;-86
2021/12/29 03:11:23;;;;;;;8.40;1.95;;;6.40;99.90;;;;;;6306929;22;20027;-85
2021/12/29 03:14:12;;;;;;;5.18;1.73;;;6.40;99.90;;;;;;6307350;22;20042;-86
2021/12/29 03:16:59;;;;;;;5.95;1.55;;;6.40;99.90;;;;;;6307006;22;20023;-88
2021/12/29 03:19:47;;;;;;;5.47;1.30;;;6.40;99.90;;;;;;6261693;22;20027;-86
2021/12/29 03:22:35;;;;;;;3.53;1.20;;;6.50;99.90;;;;;;6272720;22;20323;-87
2021/12/29 03:25:26;;;;;;;5.53;1.20;;;6.50;99.90;;;;;;6234052;22;20039;-89
2021/12/29 03:28:17;;;;;;;3.88;1.25;;;6.50;99.90;;;;;;6253983;22;20032;-87
2021/12/29 03:31:11;;;;;;;4.68;1.08;;;6.50;99.90;;;;;;6254746;22;20280;-88
2021/12/29 03:33:59;;;;;;;6.45;1.30;;;6.50;99.90;;;;;;6235540;22;20335;-88
2021/12/29 03:36:47;;;;;;;3.35;1.35;;;6.60;99.90;;;;;;6233573;22;20027;-86
2021/12/29 03:39:38;;;;;;;9.48;1.35;;;6.60;99.90;;;;;;6275094;22;20311;-85
2021/12/29 03:42:25;;;;;;;2.38;1.20;;;6.60;99.90;;;;;;6254306;22;20096;-86
2021/12/29 03:45:14;;;;;;;3.72;1.13;;;6.60;99.90;;;;;;6251820;22;20101;-86
2021/12/29 03:48:04;;;;;;;8.68;1.58;;;6.70;99.90;;;;;;6232330;22;20023;-84
2021/12/29 03:50:51;;;;;;;4.97;1.17;;;6.70;99.90;;;;;;6274676;22;20081;-87
2021/12/29 03:53:40;;;;;;;9.27;2.25;;;6.80;99.90;;;;;;6232199;22;20528;-87
2021/12/29 03:56:27;;;;;;;5.22;1.17;;;6.80;99.90;;;;;;6272764;22;20091;-86
2021/12/29 03:59:16;;;;;;;5.97;1.67;;;6.90;99.90;;;;;;6232086;22;20085;-87
2021/12/29 04:02:05;;;;;;;4.38;1.20;;;6.90;99.90;;;;;;6235492;22;20438;-87
2021/12/29 04:04:52;;;;;;;8.32;1.38;;;6.90;99.90;;;;;;6234271;22;20051;-85
2021/12/29 04:07:43;;;;;;;5.75;1.63;;;6.90;99.90;;;;;;6276594;22;20482;-88
2021/12/29 04:10:33;;;;;;;6.90;1.63;;;6.90;99.90;;;;;;6255998;22;20103;-87
2021/12/29 04:13:20;;;;;;;2.88;0.98;;;6.90;99.90;;;;;;6276991;22;20019;-87
2021/12/29 04:16:15;;;;;;;5.15;1.40;;;6.90;99.90;;;;;;6231697;22;20050;-88
2021/12/29 04:19:08;;;;;;;8.98;1.35;;;6.90;99.90;;;;;;6254981;22;20101;-88
2021/12/29 04:21:59;;;;;;;;;;;6.90;99.90;;;;;;6272577;22;20410;-87
2021/12/29 04:24:49;;;;;;;9.43;1.52;;;6.90;99.90;;;;;;6282081;22;19914;-88
2021/12/29 04:27:37;;;;;;;5.32;1.45;;;6.90;99.90;;;;;;6264008;22;20027;-86
2021/12/29 04:30:25;;;;;;;8.30;1.92;;;6.90;99.90;;;;;;6283563;22;20031;-86
2021/12/29 04:33:12;;;;;;;5.45;1.40;;;6.90;99.90;;;;;;6281300;22;20047;-86
2021/12/29 04:35:59;;;;;;;4.80;1.30;;;6.90;99.90;;;;;;6282737;22;20084;-87
2021/12/29 04:38:47;;;;;;;8.18;1.55;;;6.90;99.90;;;;;;6306310;22;20129;-86
2021/12/29 04:41:34;;;;;;;7.55;1.50;;;6.90;99.90;;;;;;6262024;22;20086;-88
2021/12/29 04:44:24;;;;;;;6.50;1.40;;;6.90;99.90;;;;;;6286332;22;20381;-86
2021/12/29 04:47:15;;;;;;;4.85;1.20;;;7.00;99.90;;;;;;6303467;22;20069;-86
2021/12/29 04:50:03;;;;;;;7.47;1.40;;;7.00;99.90;;;;;;6285975;22;20046;-86
2021/12/29 04:52:53;;;;;;;9.02;2.03;;;7.00;99.90;;;;;;6262214;22;20508;-86
2021/12/29 04:55:45;;;;;;;3.63;1.27;;;7.00;99.90;;;;;;6283226;22;20025;-87
2021/12/29 04:58:33;;;;;;;3.30;1.08;;;6.90;99.90;;;;;;6304564;22;20040;-85
2021/12/29 05:01:21;;;;;;;4.50;1.27;;;6.90;99.90;;;;;;6289165;22;20030;-85
2021/12/29 05:04:12;;;;;;;4.95;1.20;;;6.90;99.90;;;;;;6303560;22;20310;-88
2021/12/29 05:10:09;;;;;;;2.08;1.00;;;7.00;99.90;;;;;;6303904;22;20030;-86
2021/12/29 05:12:56;;;;;;;3.70;1.30;;;7.00;99.90;;;;;;6281696;22;20019;-87
2021/12/29 05:15:43;;;;;;;1.55;0.90;;;7.00;99.90;;;;;;6282875;22;20072;-86
2021/12/29 05:18:37;;;;;;;7.80;1.15;;;7.00;99.90;;;;;;6302839;22;20023;-87
2021/12/29 05:21:27;;;;;;;4.55;1.30;;;7.00;99.90;;;;;;6281452;22;20032;-87
2021/12/29 05:24:14;;;;;;;6.63;1.55;;;7.00;99.90;;;;;;6282746;22;20057;-85
2021/12/29 05:27:06;;;;;;;6.68;1.30;;;7.00;99.90;;;;;;6305821;22;20108;-85
2021/12/29 05:29:53;;;;;;;5.75;1.23;;;6.90;99.90;;;;;;6284415;22;20034;-85
2021/12/29 05:32:47;;;;;;;6.03;1.80;;;6.80;99.90;;;;;;6281729;22;20053;-87
2021/12/29 05:35:37;;;;;;;6.72;1.38;;;6.80;99.90;;;;;;6265052;22;20033;-85
2021/12/29 05:42:35;;;;;;;5.78;1.70;;;6.70;99.90;;;;;;6209029;23;20025;-86
2021/12/29 05:45:24;;;;;;;3.45;1.40;;;6.60;99.90;;;;;;6209808;23;20625;-87
2021/12/29 05:53:02;;;;;;;8.27;1.80;;;6.60;99.90;;;;;;6211285;23;20104;-86
2021/12/29 06:08:25;;;;;;;6.15;1.60;;;6.50;99.90;;;;;;6092942;23;20014;-86
2021/12/29 06:11:12;;;;;;;7.18;1.95;;;6.50;99.90;;;;;;6056474;23;20125;-89
2021/12/29 06:14:00;;;;;;;8.68;1.48;;;6.50;99.90;;;;;;6151100;23;20024;-88
2021/12/29 06:16:49;;;;;;;7.90;1.58;;;6.50;99.90;;;;;;6191633;23;20096;-84
2021/12/29 06:19:37;;;;;;;8.95;1.80;;;6.50;99.90;;;;;;6285394;22;20046;-83
2021/12/29 06:22:25;;;;;;;8.57;1.80;;;6.50;99.90;;;;;;6304341;22;20107;-82
2021/12/29 06:25:16;;;;;;;7.72;2.22;;;6.50;99.90;;;;;;6265283;22;20027;-82
2021/12/29 06:28:04;;;;;;;11.02;2.13;;;6.50;99.90;;;;;;6281768;22;20031;-83
2021/12/29 06:30:53;;;;;;;10.15;2.72;;;6.50;99.90;;;;;;6263399;22;20081;-86
2021/12/29 06:33:40;;;;;;;6.13;2.30;;;6.50;99.90;;;;;;6264022;22;20079;-84
2021/12/29 06:36:28;;;;;;;5.75;2.40;;;6.50;99.90;;;;;;6284188;22;20296;-84
2021/12/29 06:39:15;;;;;;;9.88;2.97;;;6.50;99.90;;;;;;6306665;22;20044;-86
2021/12/29 06:42:04;;;;;;;13.50;2.45;;;6.50;99.90;;;;;;6305773;22;20338;-84
2021/12/29 06:44:51;;;;;;;9.30;2.58;;;6.50;99.90;;;;;;6303752;22;20057;-86
2021/12/29 06:47:40;;;;;;;9.95;2.88;;;6.50;99.90;;;;;;6261854;22;20047;-83
2021/12/29 06:50:27;;;;;;;5.32;2.42;;;6.50;99.90;;;;;;6286750;22;20109;-85
2021/12/29 06:53:15;;;;;;;15.80;2.90;;;6.50;99.90;;;;;;6264585;22;20445;-85
2021/12/29 06:56:06;;;;;;;3.95;1.98;;;6.50;99.90;;;;;;6285428;22;20037;-84
2021/12/29 06:58:55;;;;;;;6.28;2.25;;;6.50;99.90;;;;;;6245354;22;20114;-84
2021/12/29 07:01:45;;;;;;;10.45;2.80;;;6.50;99.90;;;;;;6261932;22;20031;-82
2021/12/29 07:04:33;;;;;;;8.13;2.60;;;6.50;99.90;;;;;;6304400;22;20121;-85
2021/12/29 07:07:21;;;;;;;8.20;2.55;;;6.50;99.90;;;;;;6281768;22;20038;-85
2021/12/29 07:10:08;;;;;;;9.65;2.60;;;6.50;99.90;;;;;;6302720;22;20285;-83
2021/12/29 07:13:05;;;;;;;10.05;2.75;;;6.50;99.90;;;;;;6306053;22;20049;-81
2021/12/29 07:16:15;;;;;;;9.65;2.33;;;6.50;99.90;;;;;;6241117;23;20024;-84
2021/12/29 07:19:03;;;;;;;7.45;3.05;;;6.50;99.90;;;;;;6224679;23;20030;-82
2021/12/29 07:21:50;;;;;;;7.90;2.70;;;6.50;99.90;;;;;;6244083;23;20471;-82
2021/12/29 07:24:40;;;;;;;5.25;2.35;;;6.50;99.90;;;;;;6240897;23;20567;-82
2021/12/29 07:27:27;;;;;;;11.00;2.95;;;6.50;99.90;;;;;;6242878;23;20035;-84
2021/12/29 07:30:15;;;;;;;9.73;3.28;;;6.50;99.90;;;;;;6222296;23;20338;-83
2021/12/29 07:33:12;;;;;;;7.25;2.45;;;6.50;99.90;;;;;;6242336;23;20103;-84
2021/12/29 07:36:01;;;;;;;10.32;2.30;;;6.50;99.90;;;;;;6220692;23;20028;-83
2021/12/29 07:38:55;;;;;;;8.35;2.80;;;6.50;99.90;;;;;;6202575;23;20052;-83
2021/12/29 07:41:43;;;;;;;6.95;2.17;;;6.60;99.90;;;;;;6221872;23;20090;-83
2021/12/29 07:44:30;;;;;;;6.82;2.50;;;6.60;99.90;;;;;;6222146;23;20499;-85
2021/12/29 07:47:20;;;;;;;10.60;3.00;;;6.60;99.90;;;;;;6261488;22;20027;-82
2021/12/29 07:50:11;;;;;;;9.60;2.65;;;6.60;99.90;;;;;;6282658;22;20019;-83
2021/12/29 07:53:17;;;;;;;13.75;3.58;;;6.60;99.90;;;;;;6288753;22;20042;-82
2021/12/29 07:56:09;;;;;;;6.90;3.17;;;6.60;99.90;;;;;;6303177;22;20031;-84
2021/12/29 07:58:58;;;;;;;10.70;3.80;;;6.60;99.90;;;;;;6283030;22;20026;-84
2021/12/29 08:01:48;;;;;;;6.72;2.72;;;6.60;99.90;;;;;;6306132;22;20023;-84
2021/12/29 08:04:42;;;;;;;9.38;2.92;;;6.70;99.90;;;;;;6283066;22;20031;-83
2021/12/29 08:08:15;;;;;;;8.52;2.67;;;6.70;99.90;;;;;;6289728;22;20049;-85
2021/12/29 08:11:04;;;;;;;8.20;3.22;;;6.70;99.90;;;;;;6285716;22;20080;-84
2021/12/29 08:13:51;;;;;;;6.07;2.58;;;6.70;99.90;;;;;;6281556;22;20027;-84
2021/12/29 08:16:45;;;;;;;8.10;2.30;;;6.80;99.90;;;;;;6282885;22;20085;-84
2021/12/29 08:19:34;;;;;;;8.98;2.50;;;6.80;99.90;;;;;;6303444;22;20035;-84
2021/12/29 08:22:25;;;;;;;11.88;3.10;;;6.80;99.90;;;;;;6262498;22;20031;-84
2021/12/29 08:25:16;;;;;;;10.60;2.80;;;6.80;99.90;;;;;;6302389;22;20023;-84
2021/12/29 08:28:08;;;;;;;11.45;2.60;;;6.80;99.90;;;;;;6282028;22;20031;-83
2021/12/29 08:30:58;;;;;;;13.53;2.57;;;6.80;99.90;;;;;;6280624;22;20258;-83
2021/12/29 08:34:04;;;;;;;9.02;2.47;;;6.90;99.90;;;;;;6285582;22;20035;-84
2021/12/29 08:36:51;;;;;;;8.88;2.40;;;6.90;99.90;;;;;;6261015;22;20034;-82
2021/12/29 08:39:39;;;;;;;8.13;2.28;;;6.90;99.90;;;;;;6281091;22;20019;-84
2021/12/29 08:42:28;;;;;;;11.82;2.45;;;7.00;99.90;;;;;;6302119;22;20046;-83
2021/12/29 08:45:17;;;;;;;8.18;2.03;;;7.10;99.90;;;;;;6282131;22;20101;-84
2021/12/29 08:48:05;;;;;;;7.25;2.13;;;7.20;99.90;;;;;;6282782;22;20045;-84
2021/12/29 08:50:59;;;;;;;8.60;2.40;;;7.20;99.90;;;;;;6304111;22;20100;-84
2021/12/29 08:54:06;;;;;;;7.35;2.00;;;7.20;99.90;;;;;;6285506;22;20019;-85
2021/12/29 08:57:05;;;;;;;7.38;2.08;;;7.30;99.90;;;;;;6285195;22;20034;-85
2021/12/29 08:59:53;;;;;;;9.15;2.13;;;7.30;99.90;;;;;;6284323;22;20098;-83
2021/12/29 09:02:43;;;;;;;7.50;2.22;;;7.30;99.90;;;;;;6259174;22;20030;-85
2021/12/29 09:05:31;;;;;;;6.65;1.95;;;7.30;99.90;;;;;;6280031;22;20031;-84
2021/12/29 09:08:18;;;;;;;6.40;1.73;;;7.40;99.90;;;;;;6281379;22;20054;-83
2021/12/29 09:11:07;;;;;;;6.65;1.77;;;7.40;99.90;;;;;;6281233;22;20102;-82
2021/12/29 09:13:55;;;;;;;6.28;2.10;;;7.50;99.90;;;;;;6281517;22;20044;-84
2021/12/29 09:16:45;;;;;;;5.78;1.60;;;7.50;99.90;;;;;;6280269;22;20330;-84
2021/12/29 09:19:40;;;;;;;4.35;1.60;;;7.60;99.90;;;;;;6280908;22;20023;-84
2021/12/29 09:22:27;;;;;;;4.90;2.25;;;7.60;99.90;;;;;;6303464;22;20019;-83
2021/12/29 09:25:18;;;;;;;5.95;1.92;;;7.70;99.90;;;;;;6279337;22;20031;-85
2021/12/29 09:28:12;;;;;;;4.72;1.55;;;7.70;99.90;;;;;;6301863;22;20038;-87
2021/12/29 09:30:59;;;;;;;4.72;1.70;;;7.80;99.90;;;;;;6283447;22;20046;-84
2021/12/29 09:33:47;;;;;;;4.47;1.60;;;8.00;99.90;;;;;;6280698;22;20027;-85
2021/12/29 09:36:34;;;;;;;4.50;1.73;;;8.00;99.90;;;;;;6302922;22;20118;-85
2021/12/29 09:39:56;;;;;;;4.60;1.88;;;8.00;99.90;;;;;;6304355;22;20031;-90
2021/12/29 09:42:43;;;;;;;6.75;1.77;;;7.90;99.90;;;;;;6304442;22;20024;-85
2021/12/29 09:45:31;;;;;;;8.90;1.83;;;8.00;99.90;;;;;;6286963;22;20042;-85
2021/12/29 09:48:19;;;;;;;4.53;1.55;;;8.00;99.90;;;;;;6311231;22;20023;-83
2021/12/29 09:51:08;;;;;;;8.90;1.70;;;8.00;99.90;;;;;;6283014;22;20646;-85
2021/12/29 09:53:56;;;;;;;4.32;1.80;;;8.10;99.90;;;;;;6304639;22;20134;-84
2021/12/29 09:56:43;;;;;;;3.83;1.83;;;8.10;99.90;;;;;;6307591;22;20030;-85
2021/12/29 09:59:31;;;;;;;4.45;1.77;;;8.20;99.90;;;;;;6305426;22;20027;-85
2021/12/29 10:02:23;;;;;;;4.82;1.88;;;8.20;99.90;;;;;;6304472;22;20027;-83
2021/12/29 10:05:18;;;;;;;5.05;2.00;;;8.30;99.90;;;;;;6286688;22;20106;-85
2021/12/29 10:08:09;;;;;;;5.47;1.50;;;8.20;99.90;;;;;;6307569;22;20046;-85
2021/12/29 10:11:07;;;;;;;8.07;2.20;;;8.20;99.90;;;;;;6290329;22;20077;-86
2021/12/29 10:13:58;;;;;;;3.83;1.70;;;8.30;99.90;;;;;;6283986;22;20102;-89
2021/12/29 10:16:47;;;;;;;4.45;1.80;;;8.20;99.90;;;;;;6283292;22;20201;-85
2021/12/29 10:19:36;;;;;;;7.63;1.83;;;8.20;99.90;;;;;;6282184;22;20031;-83
2021/12/29 10:22:25;;;;;;;5.95;1.98;;;8.20;99.90;;;;;;6282839;22;20035;-82
2021/12/29 10:25:19;;;;;;;12.20;2.70;;;8.10;99.90;;;;;;6283695;22;20057;-84
2021/12/29 10:28:06;;;;;;;6.88;2.05;;;8.10;99.90;;;;;;6282193;22;20470;-85
2021/12/29 10:31:17;;;;;;;11.15;2.65;;;8.20;99.90;;;;;;6306420;22;20023;-83
2021/12/29 10:34:11;;;;;;;6.00;1.95;;;8.20;99.90;;;;;;6306395;22;20101;-83
2021/12/29 10:37:07;;;;;;;3.75;1.33;;;8.30;99.90;;;;;;6282397;22;20046;-85
2021/12/29 10:39:58;;;;;;;8.45;1.67;;;8.40;99.90;;;;;;6285272;22;20029;-84
2021/12/29 10:42:54;;;;;;;5.85;1.58;;;8.50;99.90;;;;;;6263254;22;20051;-82
2021/12/29 10:45:43;;;;;;;6.60;2.03;;;8.60;99.90;;;;;;6284347;22;20385;-85
2021/12/29 10:48:31;;;;;;;8.88;2.08;;;8.60;99.90;;;;;;6282704;22;20055;-85
2021/12/29 10:51:24;;;;;;;2.28;1.35;;;8.50;99.90;;;;;;6282664;22;20023;-88
2021/12/29 10:54:19;;;;;;;7.93;2.13;;;8.40;99.90;;;;;;6306362;22;20034;-85
2021/12/29 10:57:12;;;;;;;8.43;2.20;;;8.30;99.90;;;;;;6285766;22;20118;-89
2021/12/29 10:59:59;;;;;;;8.73;2.20;;;8.30;99.90;;;;;;6284394;22;20158;-85
2021/12/29 11:02:47;;;;;;;6.47;1.65;;;8.20;99.90;;;;;;6283783;22;20034;-88
2021/12/29 11:05:38;;;;;;;6.43;1.80;;;8.20;99.90;;;;;;6282744;22;20030;-88
2021/12/29 11:08:30;;;;;;;5.50;1.70;;;8.10;99.90;;;;;;6282947;22;20054;-86
2021/12/29 11:11:32;;;;;;;6.70;1.92;;;8.20;99.90;;;;;;6287473;22;20031;-84
2021/12/29 11:14:30;;;;;;;11.95;2.28;;;8.20;99.90;;;;;;6285934;22;20023;-87
2021/12/29 11:17:24;;;;;;;6.25;1.77;;;8.20;99.90;;;;;;6303595;22;20372;-86
2021/12/29 11:20:21;;;;;;;8.15;1.95;;;8.10;99.90;;;;;;6282327;22;20038;-86
2021/12/29 11:23:16;;;;;;;7.53;1.63;;;8.10;99.90;;;;;;6283358;22;20027;-85
2021/12/29 11:26:04;;;;;;;9.68;1.52;;;8.10;99.90;;;;;;6303786;22;20038;-85
2021/12/29 11:28:53;;;;;;;9.00;2.03;;;8.10;99.90;;;;;;6301846;22;20514;-83
2021/12/29 11:31:57;;;;;;;8.25;2.17;;;8.10;99.90;;;;;;6280846;22;20081;-84
2021/12/29 11:34:44;;;;;;;10.55;2.30;;;8.10;99.90;;;;;;6281886;22;20030;-84
2021/12/29 11:37:32;;;;;;;9.70;2.70;;;8.20;99.90;;;;;;6261401;22;20507;-85
2021/12/29 11:40:24;;;;;;;10.32;2.38;;;8.20;99.90;;;;;;6283687;22;20019;-86
2021/12/29 11:43:13;;;;;;;7.55;1.90;;;8.20;99.90;;;;;;6282260;22;20057;-84
2021/12/29 11:46:00;;;;;;;9.25;2.13;;;8.30;99.90;;;;;;6284986;22;20042;-85
2021/12/29 11:48:52;;;;;;;8.52;2.67;;;8.40;99.90;;;;;;6285117;22;20023;-84
2021/12/29 11:51:57;;;;;;;12.10;2.67;;;8.40;99.90;;;;;;6282540;22;20038;-83
2021/12/29 11:55:05;;;;;;;16.25;2.50;;;8.50;99.90;;;;;;6283078;22;20027;-85
2021/12/29 11:57:52;;;;;;;13.20;2.30;;;8.50;99.90;;;;;;6282849;22;20413;-83
2021/12/29 12:00:41;;;;;;;17.17;7.95;;;8.50;99.90;;;;;;6304057;22;20309;-84
2021/12/29 12:03:44;;;;;;;18.70;3.97;;;8.50;99.90;;;;;;6284103;22;20105;-83
2021/12/29 12:06:55;;;;;;;8.77;2.67;;;8.40;99.90;;;;;;6281919;22;20023;-81
2021/12/29 12:09:45;;;;;;;10.80;2.25;;;8.40;99.90;;;;;;6281733;22;20124;-81
2021/12/29 12:12:41;;;;;;;17.17;2.80;;;8.40;99.90;;;;;;6302096;22;20355;-83
2021/12/29 12:15:32;;;;;;;12.57;2.85;;;8.30;99.90;;;;;;6281112;22;20019;-86
2021/12/29 12:18:20;;;;;;;11.73;2.58;;;8.20;99.90;;;;;;6282803;22;20046;-86
2021/12/29 12:21:19;;;;;;;13.75;2.95;;;8.20;99.90;;;;;;6303074;22;20019;-86
2021/12/29 12:24:13;;;;;;;;;;;8.20;99.90;;;;;;6278328;22;20358;-85
2021/12/29 12:27:07;;;;;;;14.95;2.97;;;8.30;99.90;;;;;;6303286;22;20233;-85
2021/12/29 12:30:18;;;;;;;11.88;3.22;;;8.40;99.90;;;;;;6281865;22;20038;-86
2021/12/29 12:33:14;;;;;;;13.25;3.08;;;8.40;99.90;;;;;;6280978;22;20497;-85
2021/12/29 12:36:11;;;;;;;12.35;2.90;;;8.50;99.90;;;;;;6281605;22;20050;-85
2021/12/29 12:39:08;;;;;;;11.50;3.17;;;8.40;99.90;;;;;;6302635;22;20031;-85
2021/12/29 12:41:58;;;;;;;13.35;2.78;;;8.40;99.90;;;;;;6281054;22;20023;-84
2021/12/29 12:44:45;;;;;;;8.40;2.42;;;8.40;99.90;;;;;;6281280;22;20338;-82
2021/12/29 12:47:36;;;;;;;12.48;2.78;;;8.40;99.90;;;;;;6302099;22;20410;-88
2021/12/29 12:50:30;;;;;;;9.32;2.75;;;8.40;99.90;;;;;;6261168;22;20031;-84
2021/12/29 12:53:32;;;;;;;7.55;2.15;;;8.40;99.90;;;;;;6278634;22;20023;-83
2021/12/29 12:56:25;;;;;;;8.75;2.42;;;8.50;99.90;;;;;;6282239;22;20023;-83
2021/12/29 12:59:12;;;;;;;4.75;1.83;;;8.50;99.90;;;;;;6281627;22;20050;-84
2021/12/29 13:02:25;;;;;;;9.80;2.30;;;8.50;99.90;;;;;;6301509;22;20023;-83
2021/12/29 13:05:15;;;;;;;7.60;2.30;;;8.50;99.90;;;;;;6281903;22;20150;-84
2021/12/29 13:08:18;;;;;;;6.75;2.35;;;8.50;99.90;;;;;;6279293;22;20319;-84
2021/12/29 13:11:13;;;;;;;10.85;2.20;;;8.50;99.90;;;;;;6302996;22;20119;-83
2021/12/29 13:14:04;;;;;;;7.22;2.05;;;8.50;99.90;;;;;;6303965;22;20027;-85
2021/12/29 13:16:51;;;;;;;8.75;1.70;;;8.50;99.90;;;;;;6278941;22;20019;-83
2021/12/29 13:19:39;;;;;;;6.13;1.80;;;8.40;99.90;;;;;;6258271;22;20027;-83
2021/12/29 13:22:28;;;;;;;4.05;1.92;;;8.40;99.90;;;;;;6280276;22;20023;-84
2021/12/29 13:25:24;;;;;;;8.00;2.53;;;8.50;99.90;;;;;;6277871;22;20023;-83
2021/12/29 13:28:14;;;;;;;3.85;1.65;;;8.50;99.90;;;;;;6280389;22;20054;-82
2021/12/29 13:31:14;;;;;;;3.78;1.73;;;8.50;99.90;;;;;;6301992;22;20029;-82
2021/12/29 13:34:02;;;;;;;6.85;2.30;;;8.40;99.90;;;;;;6280453;22;20330;-84
2021/12/29 13:36:50;;;;;;;7.53;2.50;;;8.40;99.90;;;;;;6259247;22;20035;-83
2021/12/29 13:39:37;;;;;;;2.33;1.30;;;8.40;99.90;;;;;;6260582;22;20337;-82
2021/12/29 13:42:26;;;;;;;2.58;1.52;;;8.40;99.90;;;;;;6304956;22;20379;-83
2021/12/29 13:45:22;;;;;;;7.95;1.90;;;8.40;99.90;;;;;;6281172;22;20128;-82
2021/12/29 13:48:21;;;;;;;3.25;1.60;;;8.30;99.90;;;;;;6302030;22;20458;-83
2021/12/29 13:51:49;;;;;;;3.42;1.30;;;8.20;99.90;;;;;;6280298;22;20046;-84
2021/12/29 13:54:39;;;;;;;6.93;1.80;;;8.10;99.90;;;;;;6229286;22;20046;-84
2021/12/29 13:58:31;;;;;;;;;;;;;;;;;;;;;
2021/12/29 14:27:29;;;;;;;7.38;1.88;;;7.50;99.90;;;;;;5947110;24;20017;-85
2021/12/29 14:33:52;;;;;;;3.95;2.20;;;7.40;99.90;;;;;;6154206;23;20026;-88
2021/12/29 14:36:53;;;;;;;4.13;1.80;;;7.40;99.90;;;;;;6226586;22;20031;-87
2021/12/29 14:39:42;;;;;;;8.50;2.15;;;7.40;99.90;;;;;;6257208;22;20034;-89
2021/12/29 14:42:37;;;;;;;3.35;1.63;;;7.40;99.90;;;;;;6275533;22;20034;-88
2021/12/29 14:45:25;;;;;;;4.80;1.80;;;7.30;99.90;;;;;;6275977;22;20023;-86
2021/12/29 14:48:22;;;;;;;3.67;2.10;;;7.30;99.90;;;;;;6234655;22;20034;-88
2021/12/29 14:51:17;;;;;;;6.35;2.10;;;7.30;99.90;;;;;;6259600;22;20023;-87
2021/12/29 14:54:14;;;;;;;2.70;1.92;;;7.30;99.90;;;;;;6262201;22;20019;-88
2021/12/29 15:05:58;;;;;;;5.45;2.47;;;7.30;99.90;;;;;;6279221;22;20701;-87
2021/12/29 16:19:08;;;;;;;6.80;3.65;;;7.00;99.90;;;;;;6308162;22;20003;-88
2021/12/29 16:26:50;;;;;;;9.60;5.70;;;7.00;99.90;;;;;;6147713;23;20022;-86
2021/12/29 16:29:55;;;;;;;11.25;6.93;;;7.00;99.90;;;;;;6211773;23;20020;-89
2021/12/29 16:32:45;;;;;;;8.40;6.35;;;7.00;99.90;;;;;;6245196;23;20057;-87
2021/12/29 16:35:33;;;;;;;7.15;4.90;;;6.90;99.90;;;;;;6203856;23;20024;-88
2021/12/29 16:38:22;;;;;;;8.65;4.88;;;6.90;99.90;;;;;;6204302;23;20415;-87
2021/12/29 16:41:11;;;;;;;7.50;5.32;;;6.90;99.90;;;;;;6242648;23;20509;-89
2021/12/29 16:43:58;;;;;;;8.15;5.95;;;6.90;99.90;;;;;;6225122;23;20042;-87
2021/12/29 16:46:46;;;;;;;9.65;5.65;;;6.90;99.90;;;;;;6243291;23;20502;-90
2021/12/29 16:49:34;;;;;;;7.43;5.78;;;6.90;99.90;;;;;;6221487;23;20064;-87
2021/12/29 17:15:38;;;;;;;9.27;7.63;;;6.90;99.90;;;;;;6244657;22;20035;-85
2021/12/29 17:18:26;;;;;;;9.52;8.02;;;6.90;99.90;;;;;;6255751;22;20034;-87
2021/12/29 17:21:13;;;;;;;10.77;7.75;;;7.00;99.90;;;;;;6236458;22;20054;-89
2021/12/29 17:24:01;;;;;;;10.95;8.60;;;7.00;99.90;;;;;;6255849;22;20032;-86
2021/12/29 17:26:59;;;;;;;14.65;9.57;;;7.00;99.90;;;;;;6275403;22;20028;-89
2021/12/29 17:46:00;;;;;;;17.90;9.90;;;7.10;99.90;;;;;;6252000;22;20028;-88
2021/12/29 17:49:06;;;;;;;14.23;10.05;;;7.10;99.90;;;;;;6179765;23;20292;-87
2021/12/29 18:31:09;;;;;;;18.70;13.60;;;7.30;99.90;;;;;;6210940;22;20106;-90
2021/12/29 18:33:59;;;;;;;15.43;12.43;;;7.30;99.90;;;;;;6275751;22;20024;-86
2021/12/29 18:36:46;;;;;;;18.23;13.10;;;7.30;99.90;;;;;;6274313;22;20028;-87
2021/12/29 18:39:38;;;;;;;21.25;15.20;;;7.30;99.90;;;;;;6252156;22;20024;-87
2021/12/29 18:42:28;;;;;;;27.60;16.25;;;7.40;99.90;;;;;;6250413;22;20033;-88